South Britain, CT

11:51 PM EDT on August 30, 2014 (GMT -0400)
KCTSOUTH13 | Change Station
CLOSE
Current Station
Personal Weather Station
Location: Astrium Satellite, Southbury, CT
Elevation: 121 ft
Nearby Weather Stations

Elev 121 ft 41.45 °N, 73.29 °W | Updated 46 seconds ago

Overcast
Overcast
71.4 °F
Feels Like 71 °F
N
0.0
Wind Variable Wind from SSE
Gusts 1.0 mph

Today
High -- | Low -- °F
--% Chance of Precip.
Yesterday
High -- | Low -- °F
Precip. -- in
6:17 AM 7:29 PM
Waxing Crescent, 27% visible
Pressure 30.18 in
Visibility 10.0 miles
Clouds Scattered Clouds 2800 ft
Overcast 3900 ft
Heat Index 71 °F
Dew Point 66 °F
Humidity 84%
Rainfall 0.00 in
Snow Depth Not available.
UV 0 out of 12
Pollen 7.70 out of 12
Ozone Good
PM2.5 Good
Flu Activity Not available.
METAR KOXC 310335Z 19005KT 10SM SCT028 OVC039 20/17 A3018 RMK AO1

More Conditions Fewer Conditions

Pressure 30.18 in
Visibility 10.0 miles
Clouds Scattered Clouds 2800 ft
Overcast 3900 ft
Heat Index 71 °F
Dew Point 66 °F
Humidity 84%
Rainfall 0.00 in
Snow Depth Not available.
UV 0 out of 12
Pollen 7.70 out of 12
Ozone Good
PM2.5 Good
Flu Activity Not available.
METAR KOXC 310335Z 19005KT 10SM SCT028 OVC039 20/17 A3018 RMK AO1

More Conditions Fewer Conditions

10-Day Weather Forecast

Almanac

Astronomy

Aug. 30, 2014 Rise Set
Actual Time 6:17 AM EDT 7:29 PM EDT
Civil Twilight 5:48 AM EDT 7:57 PM EDT
Nautical Twilight 5:14 AM EDT 8:31 PM EDT
Astronomical Twilight 4:38 AM EDT 9:07 PM EDT
Moon 11:05 AM EDT (8/30) 9:57 PM EDT (8/30)
Length of Visible Light 14h 09m
Length of Day
13h 12m
Tomorrow will be 2m 39s shorter.
Waxing Crescent, 27% of the Moon is Illuminated
Today
Waxing Crescent
Sep 2
First Quarter
Sep 8
Full
Sep 15
Last Quarter
Sep 24
New

Today's Extremes

State Highs State Lows

Community

WunderPhotos

Upload Photos

1,748,773 photos uploaded!

Nearby

Air Quality

  Air Quality AQ Index Pollutant
Yesterday Good
OZONE
Yesterday Good
PM2.5
Current Good
PM2.5
Current Good
OZONE
Saturday Good
OZONE
Saturday Good
PM2.5
Sunday Moderate
PM2.5
Sunday Good
OZONE
Monday Moderate
PM2.5
Monday Good
OZONE
Tuesday Moderate
OZONE
Tuesday Moderate
PM2.5

Snow Depth

Station Depth Elevation
No new snow has been reported.

Earthquake Activity

City Distance Mag. Time & Date
No recent earthquake activity has been reported nearby.
Minimum magnitude displayed is 2.5.

Coastal Water Temperatures

Place Temperature
Bridgeport, CT 75.0 °F

Nearby Weather Stations